Latest Weather Observations for Mount Boyce

IDN60901

Issued at 9:11 pm EDT Monday 17 December 2018 (issued every 10 minutes, with the page automatically refreshed every 10 minutes)

About weather observations | Map of Sydney area stations | Latest observations for Sydney area | Other Formats
Station Details ID: 063292 Name: MOUNT BOYCE AWS Lat: -33.62 Lon: 150.27 Height: 1080.0 m
Data from the previous 72 hours. | See also: Recent months at Mount Boyce
Date/Time
EDT
Temp
°C
App
Temp
°C
Dew
Point
°C
Rel
Hum
%
Delta-T
°C
Wind Press
QNH
hPa
Press
MSL
hPa
Rain since
9am
mm
Dir  Spd
km/h
Gust
km/h
Spd
kts
Gust
kts
17/09:00pm 17.6 16.5 11.9 69 3.3 ENE 9 17 5 9 - - 0.0
17/08:30pm 18.6 17.4 11.7 64 4.0 ENE 9 15 5 8 - - 0.0
17/08:00pm 20.1 18.6 11.8 59 4.8 ENE 11 17 6 9 - - 0.0
17/07:30pm 21.7 20.2 12.0 54 5.7 ENE 11 17 6 9 - - 0.0
17/07:00pm 22.7 20.6 11.1 48 6.8 ENE 13 26 7 14 - - 0.0
17/06:30pm 24.9 24.0 12.5 46 7.5 ENE 9 15 5 8 - - 0.0
17/06:00pm 24.2 22.2 11.5 45 7.5 ENE 13 26 7 14 - - 0.0
17/05:30pm 27.5 24.0 8.9 31 10.7 WSW 17 28 9 15 - - 0.0
17/05:00pm 27.6 23.8 7.5 28 11.3 WSW 17 28 9 15 - - 0.0
17/04:30pm 27.8 23.8 8.1 29 11.2 WSW 19 28 10 15 - - 0.0
17/04:00pm 27.1 22.8 7.0 28 11.2 W 19 32 10 17 - - 0.0
17/03:30pm 26.8 22.3 6.8 28 11.1 WSW 20 32 11 17 - - 0.0
17/03:00pm 26.5 21.5 6.5 28 11.0 WSW 22 41 12 22 - - 0.0
17/02:30pm 26.2 20.8 6.3 28 10.9 WSW 24 37 13 20 - - 0.0
17/02:00pm 25.6 20.2 6.3 29 10.5 WSW 24 39 13 21 - - 0.0
17/01:30pm 25.3 20.4 7.0 31 10.1 WSW 22 33 12 18 - - 0.0
17/01:00pm 25.2 21.3 6.9 31 10.1 WSW 17 32 9 17 - - 0.0
17/12:30pm 24.6 20.9 6.4 31 9.9 W 15 26 8 14 - - 0.0
17/12:00pm 23.7 20.1 6.9 34 9.2 WSW 15 22 8 12 - - 0.0
17/11:30am 23.9 20.3 6.7 33 9.4 WSW 15 24 8 13 - - 0.0
17/11:00am 23.1 19.9 6.8 35 8.9 W 13 20 7 11 - - 0.0
17/10:30am 22.3 20.0 7.3 38 8.2 WNW 9 19 5 10 - - 0.0
17/10:00am 21.4 19.0 6.9 39 7.8 W 9 19 5 10 - - 0.0
17/09:30am 20.5 18.5 8.5 46 6.6 W 9 13 5 7 - - 0.0
17/09:00am 19.5 17.1 6.9 44 6.7 W 9 15 5 8 - - 0.2
17/08:30am 18.7 16.1 7.8 49 5.9 W 11 17 6 9 - - 0.2
17/08:00am 18.0 15.4 7.7 51 5.5 WSW 11 15 6 8 - - 0.2
17/07:30am 17.4 14.8 6.0 47 5.9 W 9 13 5 7 - - 0.2
17/07:00am 17.0 14.0 5.9 48 5.7 WNW 11 15 6 8 - - 0.2
17/06:30am 16.2 13.7 6.6 53 5.0 WNW 9 11 5 6 - - 0.2
17/06:00am 16.5 13.9 6.1 50 5.4 W 9 13 5 7 - - 0.2
17/05:30am 16.0 13.5 6.4 53 5.0 W 9 11 5 6 - - 0.2
17/05:00am 15.9 13.0 6.3 53 4.9 W 11 13 6 7 - - 0.2
17/04:30am 16.3 13.4 6.7 53 5.0 W 11 13 6 7 - - 0.2
17/04:00am 16.0 13.3 7.5 57 4.5 W 11 13 6 7 - - 0.2
17/03:30am 15.7 13.2 8.0 60 4.1 W 11 15 6 8 - - 0.2
17/03:00am 16.1 13.9 9.3 64 3.7 W 11 15 6 8 - - 0.2
17/02:30am 15.9 13.5 10.2 69 3.2 W 13 15 7 8 - - 0.2
17/02:00am 16.4 14.5 10.5 68 3.3 W 11 13 6 7 - - 0.2
17/01:30am 16.6 14.4 10.9 69 3.2 WSW 13 17 7 9 - - 0.2
17/01:00am 16.9 15.3 11.4 70 3.1 W 11 13 6 7 - - 0.2
17/12:30am 17.1 16.1 13.4 79 2.2 W 11 13 6 7 - - 0.2
17/12:00am 17.9 17.3 13.6 76 2.6 WSW 9 11 5 6 - - 0.2
 
Date/Time
EDT
Temp
°C
App
Temp
°C
Dew
Point
°C
Rel
Hum
%
Delta-T
°C
Wind Press
QNH
hPa
Press
MSL
hPa
Rain since
9am
mm
Dir  Spd
km/h
Gust
km/h
Spd
kts
Gust
kts
16/11:30pm 18.2 17.7 13.9 76 2.6 WSW 9 11 5 6 - - 0.2
16/11:00pm 18.4 17.8 13.5 73 2.9 W 9 13 5 7 - - 0.2
16/10:30pm 18.1 18.0 15.0 82 1.9 NE 9 13 5 7 - - 0.2
16/10:00pm 18.5 18.3 14.8 79 2.3 NNE 9 13 5 7 - - 0.2
16/09:30pm 19.0 18.7 15.5 80 2.2 NNE 11 15 6 8 - - 0.2
16/09:00pm 19.3 18.6 15.4 78 2.4 NE 13 19 7 10 - - 0.2
16/08:30pm 19.8 19.3 15.0 74 3.0 ENE 11 22 6 12 - - 0.2
16/08:00pm 21.0 21.1 15.5 71 3.4 ENE 9 15 5 8 - - 0.2
16/07:30pm 22.3 22.4 15.6 66 4.2 ENE 9 15 5 8 - - 0.2
16/07:00pm 25.8 23.5 7.4 31 10.2 W 9 17 5 9 - - 0.2
16/06:30pm 26.2 23.8 6.8 29 10.7 W 9 13 5 7 - - 0.2
16/06:00pm 25.6 22.7 6.3 29 10.5 WSW 11 15 6 8 - - 0.2
16/05:30pm 25.5 22.4 5.7 28 10.7 NW 11 20 6 11 - - 0.2
16/05:00pm 24.8 21.6 7.0 32 9.8 WNW 13 22 7 12 - - 0.2
16/04:30pm 27.0 22.6 6.4 27 11.3 W 19 28 10 15 - - 0.2
16/04:00pm 26.2 22.8 5.7 27 11.1 NW 13 24 7 13 - - 0.2
16/03:30pm 24.7 20.8 5.5 29 10.3 W 15 28 8 15 - - 0.2
16/03:00pm 25.8 20.6 3.7 24 11.5 WNW 20 30 11 16 - - 0.2
16/02:30pm 26.1 21.8 5.1 26 11.3 NW 17 28 9 15 - - 0.2
16/02:00pm 26.4 22.9 5.4 26 11.3 NW 13 26 7 14 - - 0.2
16/01:30pm 24.7 18.0 3.9 26 10.8 WNW 28 43 15 23 - - 0.2
16/01:00pm 25.1 20.5 3.7 25 11.1 WNW 17 43 9 23 - - 0.2
16/12:30pm 24.9 21.3 8.4 35 9.3 NNW 17 30 9 16 - - 0.2
16/12:00pm 23.9 20.4 7.1 34 9.2 NW 15 32 8 17 - - 0.2
16/11:30am 23.9 21.0 8.3 37 8.7 NW 13 24 7 13 - - 0.2
16/11:00am 23.2 19.7 7.3 36 8.7 NW 15 32 8 17 - - 0.2
16/10:30am 22.4 19.2 7.0 37 8.4 NW 13 28 7 15 - - 0.2
16/10:00am 22.4 20.1 7.4 38 8.2 NNW 9 20 5 11 - - 0.2
16/09:30am 21.6 18.8 8.5 43 7.3 NNW 13 26 7 14 - - 0.2
16/09:00am 20.9 18.5 10.1 50 6.1 NNW 13 24 7 13 - - 21.4
16/08:30am 20.1 17.6 8.4 47 6.4 N 11 19 6 10 - - 21.4
16/08:00am 19.3 16.7 9.5 53 5.5 N 13 22 7 12 - - 21.4
16/07:30am 18.6 16.2 9.9 57 4.9 N 13 20 7 11 - - 21.4
16/07:00am 17.7 16.0 11.3 66 3.7 N 11 17 6 9 - - 21.4
16/06:30am 17.3 15.7 11.6 69 3.3 N 11 19 6 10 - - 21.4
16/06:00am 16.8 16.1 11.9 73 2.8 NW 7 11 4 6 - - 21.4
16/05:30am 17.2 16.8 12.3 73 2.8 NNE 6 11 3 6 - - 21.4
16/05:00am 17.4 16.5 12.5 73 2.9 NNW 9 17 5 9 - - 21.4
16/04:30am 17.2 16.9 13.3 78 2.3 N 7 15 4 8 - - 21.4
16/04:00am 17.1 16.5 13.4 79 2.2 N 9 17 5 9 - - 21.4
16/03:30am 17.1 16.5 14.7 86 1.5 NNE 11 19 6 10 - - 21.4
16/03:00am 16.7 16.7 15.1 90 1.0 NE 9 19 5 10 - - 21.4
16/02:30am 16.3 16.0 14.5 89 1.1 NE 9 17 5 9 - - 21.4
16/02:00am 16.6 15.8 15.0 90 1.0 NNE 13 19 7 10 - - 21.4
16/01:30am 16.5 16.2 15.4 93 0.7 NNE 11 17 6 9 - - 21.4
16/01:00am 15.9 15.9 15.1 95 0.5 NE 9 19 5 10 - - 21.4
16/12:30am 15.8 15.3 15.0 95 0.5 NE 11 17 6 9 - - 21.4
16/12:12am 15.7 14.9 15.1 96 0.4 NE 13 20 7 11 - - 21.4
16/12:00am 15.7 15.3 15.1 96 0.4 NE 11 20 6 11 - - 21.4
 
Date/Time
EDT
Temp
°C
App
Temp
°C
Dew
Point
°C
Rel
Hum
%
Delta-T
°C
Wind Press
QNH
hPa
Press
MSL
hPa
Rain since
9am
mm
Dir  Spd
km/h
Gust
km/h
Spd
kts
Gust
kts
15/11:30pm 15.8 15.4 15.2 96 0.4 NE 11 19 6 10 - - 21.4
15/11:08pm 15.7 15.7 15.2 97 0.3 NE 9 17 5 9 - - 21.4
15/11:00pm 15.6 15.6 15.1 97 0.3 NE 9 15 5 8 - - 21.4
15/10:30pm 15.0 14.4 14.5 97 0.3 ENE 11 13 6 7 - - 21.4
15/10:00pm 15.0 14.3 14.4 96 0.4 ENE 11 15 6 8 - - 21.2
15/09:30pm 14.9 14.1 13.9 94 0.6 ENE 11 17 6 9 - - 21.2
15/09:00pm 16.3 14.3 14.0 86 1.4 ENE 17 30 9 16 - - 6.8
15/08:46pm 17.1 16.6 15.8 92 0.8 ENE 13 19 7 10 - - 1.0
15/08:30pm 17.3 16.6 15.3 88 1.2 ENE 13 20 7 11 - - 0.8
15/08:00pm 17.5 17.1 15.3 87 1.3 ENE 11 17 6 9 - - 0.8
15/07:30pm 18.1 17.7 15.2 83 1.8 ENE 11 19 6 10 - - 0.8
15/07:00pm 20.1 20.1 15.3 74 3.0 ENE 9 15 5 8 - - 0.8
15/06:30pm 20.7 20.6 15.0 70 3.5 E 9 20 5 11 - - 0.8
15/06:00pm 21.8 21.0 12.9 57 5.3 NE 9 17 5 9 - - 0.8
15/05:30pm 22.1 21.1 13.5 58 5.2 NNW 11 20 6 11 - - 0.8
15/05:00pm 19.6 19.5 15.0 75 2.8 N 9 20 5 11 - - 0.8
15/04:46pm 18.3 18.4 15.6 84 1.7 NNE 9 15 5 8 - - 0.8
15/04:30pm 18.4 18.0 16.2 87 1.4 NE 13 28 7 15 - - 0.8
15/04:16pm 18.6 15.7 14.1 75 2.7 N 22 41 12 22 - - 0.2
15/04:00pm 22.8 20.4 12.7 53 6.1 NNW 17 32 9 17 - - 0.2
15/03:30pm 22.4 20.8 12.9 55 5.7 NNE 13 28 7 15 - - 0.2
15/03:00pm 23.6 21.9 12.3 49 6.8 NNE 13 22 7 12 - - 0.2
15/02:30pm 22.5 19.5 11.9 51 6.3 N 19 39 10 21 - - 0.2
15/02:00pm 23.7 21.3 11.4 46 7.3 N 15 30 8 16 - - 0.2
15/01:30pm 23.1 20.9 12.1 50 6.5 N 15 26 8 14 - - 0.2
15/01:00pm 22.5 19.8 13.0 55 5.7 N 19 39 10 21 - - 0.2
15/12:30pm 23.6 23.3 15.4 60 5.2 NNE 11 20 6 11 - - 0.2
15/12:00pm 21.9 20.8 13.0 57 5.3 NNE 11 20 6 11 - - 0.2
15/11:30am 21.1 18.7 12.5 58 5.1 NNE 17 26 9 14 - - 0.2
15/11:00am 21.1 19.7 13.5 62 4.6 N 13 37 7 20 - - 0.2
15/10:30am 19.4 19.5 14.0 71 3.3 NNE 6 13 3 7 - - 0.2
15/10:05am 19.1 19.4 14.6 75 2.7 NNE 6 15 3 8 - - 0.2
15/10:00am 19.2 19.5 14.5 74 2.9 NNE 6 19 3 10 - - 0.2
15/09:30am 19.0 19.2 15.7 81 2.1 NE 9 17 5 9 - - 0.0
15/09:22am 18.8 19.2 15.3 80 2.2 NE 7 15 4 8 - - 0.0
15/09:00am 18.5 18.6 15.4 82 1.9 ENE 9 19 5 10 - - 7.0
15/08:30am 18.5 17.6 13.8 74 2.8 N 11 22 6 12 - - 7.0
15/08:00am 17.7 17.4 14.4 81 2.0 N 9 17 5 9 - - 7.0
15/07:30am 16.7 16.3 14.2 85 1.5 NNE 9 19 5 10 - - 7.0
15/07:00am 16.1 16.0 13.9 87 1.3 N 7 20 4 11 - - 7.0
15/06:30am 15.7 15.2 13.9 89 1.1 N 9 17 5 9 - - 7.0
15/06:00am 15.3 14.9 14.0 92 0.8 NNW 9 13 5 7 - - 7.0
15/05:30am 15.3 14.7 14.7 96 0.4 NNW 11 19 6 10 - - 7.0
15/05:28am 15.1 14.8 14.5 96 0.4 N 9 17 5 9 - - 7.0
15/05:25am 15.1 14.9 14.6 97 0.3 N 9 15 5 8 - - 7.0
15/05:00am 15.2 15.5 14.9 98 0.2 NE 7 13 4 7 - - 7.0
15/04:30am 15.5 15.1 15.3 99 0.1 NE 11 24 6 13 - - 7.0
15/04:00am 15.6 15.3 15.4 99 0.1 NE 11 22 6 12 - - 7.0
15/03:30am 15.7 15.8 15.5 99 0.1 ENE 9 17 5 9 - - 7.0
15/03:00am 15.9 16.5 15.7 99 0.1 NE 7 11 4 6 - - 7.0
15/02:30am 15.8 15.5 15.5 98 0.2 NE 11 19 6 10 - - 7.0
15/02:00am 16.1 16.7 15.9 99 0.1 ENE 7 13 4 7 - - 7.0
15/01:30am 16.0 15.8 15.8 99 0.1 NE 11 20 6 11 - - 7.0
15/01:00am 16.0 15.8 15.8 99 0.1 NE 11 19 6 10 - - 7.0
15/12:30am 16.0 16.2 15.8 99 0.1 NE 9 20 5 11 - - 7.0
15/12:00am 16.0 16.6 15.8 99 0.1 NE 7 20 4 11 - - 7.0
 
Date/Time
EDT
Temp
°C
App
Temp
°C
Dew
Point
°C
Rel
Hum
%
Delta-T
°C
Wind Press
QNH
hPa
Press
MSL
hPa
Rain since
9am
mm
Dir  Spd
km/h
Gust
km/h
Spd
kts
Gust
kts
14/11:30pm 16.0 16.6 15.8 99 0.1 ENE 7 15 4 8 - - 6.8
14/11:00pm 16.1 16.7 15.8 98 0.2 ENE 7 13 4 7 - - 6.8
14/10:30pm 16.1 16.6 15.6 97 0.3 ENE 7 15 4 8 - - 6.8
14/10:00pm 16.1 16.2 15.5 96 0.4 ENE 9 13 5 7 - - 6.8
14/09:30pm 16.0 16.1 15.5 97 0.3 ENE 9 17 5 9 - - 6.8

Latest Capital City Observations: Canberra | Sydney | Melbourne | Brisbane | Adelaide | Perth | Hobart | Darwin

Other Formats:

Comma delimited format used in spreadsheet applications
http://www.bom.gov.au/fwo/IDN60901/IDN60901.94743.axf

JavaScript Object Notation format (JSON) in row-major order
http://www.bom.gov.au/fwo/IDN60901/IDN60901.94743.json